createdAt,value
2018-05-09T00:01:43.183Z,94.60
2018-05-09T00:04:10.804Z,94.50
2018-05-09T00:06:38.444Z,96.20
2018-05-09T00:09:06.055Z,95.40
2018-05-09T00:11:33.683Z,95.10
2018-05-09T00:14:01.311Z,94.20
2018-05-09T00:16:29.699Z,92.80
2018-05-09T00:18:57.323Z,92.80
2018-05-09T00:21:24.944Z,94.70
2018-05-09T00:23:52.569Z,96.50
2018-05-09T00:26:20.187Z,95.70
2018-05-09T00:28:47.803Z,96.40
2018-05-09T00:31:15.439Z,97.50
2018-05-09T00:33:43.054Z,96.30
2018-05-09T00:36:10.799Z,97.00
2018-05-09T00:38:38.422Z,96.00
2018-05-09T00:41:06.042Z,98.30
2018-05-09T00:43:33.659Z,98.80
2018-05-09T00:46:01.272Z,98.30
2018-05-09T00:48:29.659Z,98.40
2018-05-09T00:50:57.280Z,98.40
2018-05-09T00:53:24.907Z,98.00
2018-05-09T00:55:52.541Z,98.00
2018-05-09T00:58:20.171Z,99.60
2018-05-09T01:00:47.898Z,99.00
2018-05-09T01:03:16.298Z,99.90
2018-05-09T01:05:43.914Z,99.90
2018-05-09T01:08:11.527Z,99.90
2018-05-09T01:10:39.148Z,99.90
2018-05-09T01:13:07.114Z,99.90
2018-05-09T01:15:34.735Z,99.90
2018-05-09T01:18:02.355Z,99.90
2018-05-09T01:20:29.979Z,99.90
2018-05-09T01:22:57.605Z,99.90
2018-05-09T01:25:25.423Z,99.90
2018-05-09T01:27:53.044Z,99.90
2018-05-09T01:30:20.655Z,99.90
2018-05-09T01:32:48.291Z,99.90
2018-05-09T01:35:15.910Z,99.90
2018-05-09T01:37:43.534Z,99.90
2018-05-09T01:40:11.155Z,99.90
2018-05-09T01:42:38.783Z,99.90
2018-05-09T01:45:06.416Z,99.90
2018-05-09T01:47:34.035Z,99.90
2018-05-09T01:50:01.663Z,99.90
2018-05-09T01:52:29.279Z,99.90
2018-05-09T01:54:56.978Z,99.90
2018-05-09T01:57:24.543Z,99.90
2018-05-09T01:59:52.926Z,99.90
2018-05-09T02:02:20.555Z,99.90
2018-05-09T02:04:48.176Z,99.90
2018-05-09T02:07:15.794Z,99.90
2018-05-09T02:09:43.411Z,99.90
2018-05-09T02:12:11.040Z,99.90
2018-05-09T02:14:38.675Z,99.90
2018-05-09T02:17:06.296Z,99.90
2018-05-09T02:19:33.915Z,99.90
2018-05-09T02:22:01.539Z,99.90
2018-05-09T02:24:29.158Z,99.90
2018-05-09T02:26:56.803Z,99.90
2018-05-09T02:29:24.421Z,99.90
2018-05-09T02:31:52.043Z,99.90
2018-05-09T02:34:19.663Z,99.90
2018-05-09T02:36:47.285Z,99.90
2018-05-09T02:39:14.904Z,99.90
2018-05-09T02:41:42.536Z,99.90
2018-05-09T02:44:10.920Z,99.90
2018-05-09T02:46:38.542Z,99.90
2018-05-09T02:49:06.163Z,99.90
2018-05-09T02:51:33.792Z,99.90
2018-05-09T02:54:01.413Z,99.90
2018-05-09T02:56:29.024Z,99.90
2018-05-09T02:58:56.647Z,99.90
2018-05-09T03:01:24.274Z,99.90
2018-05-09T03:03:52.655Z,99.90
2018-05-09T03:06:20.277Z,99.90
2018-05-09T03:08:47.896Z,99.90
2018-05-09T03:11:15.519Z,99.90
2018-05-09T03:13:43.146Z,99.90
2018-05-09T03:16:10.771Z,99.90
2018-05-09T03:18:38.387Z,99.90
2018-05-09T03:21:06.012Z,99.90
2018-05-09T03:23:33.638Z,99.90
2018-05-09T03:26:01.271Z,99.90
2018-05-09T03:28:28.904Z,99.90
2018-05-09T03:30:56.515Z,99.90
2018-05-09T03:33:24.151Z,99.90
2018-05-09T03:35:52.543Z,99.90
2018-05-09T03:38:20.169Z,99.90
2018-05-09T03:40:47.795Z,99.90
2018-05-09T03:43:15.415Z,99.90
2018-05-09T03:45:43.039Z,99.90
2018-05-09T03:48:10.651Z,99.90
2018-05-09T03:50:38.271Z,99.90
2018-05-09T03:53:05.896Z,99.90
2018-05-09T03:55:33.522Z,99.90
2018-05-09T03:58:01.140Z,99.90
2018-05-09T04:00:28.760Z,99.90
2018-05-09T04:03:08.072Z,99.90
2018-05-09T04:05:47.438Z,99.90
2018-05-09T04:08:26.811Z,99.90
2018-05-09T04:10:55.251Z,99.90
2018-05-09T04:13:22.867Z,99.90
2018-05-09T04:15:50.487Z,99.90
2018-05-09T04:18:18.102Z,99.90
2018-05-09T04:20:45.780Z,99.90
2018-05-09T04:23:13.335Z,99.90
2018-05-09T04:25:40.963Z,99.90
2018-05-09T04:28:08.632Z,99.90
2018-05-09T04:30:36.223Z,99.90
2018-05-09T04:33:03.839Z,99.90
2018-05-09T04:35:31.463Z,99.90
2018-05-09T04:37:59.083Z,99.90
2018-05-09T04:40:26.715Z,99.90
2018-05-09T04:42:54.339Z,99.90
2018-05-09T04:45:21.959Z,99.90
2018-05-09T04:47:49.578Z,99.90
2018-05-09T04:50:17.207Z,99.90
2018-05-09T04:52:44.827Z,99.90
2018-05-09T04:55:12.448Z,99.90
2018-05-09T04:57:40.067Z,99.90
2018-05-09T05:00:07.695Z,99.90
2018-05-09T05:02:35.320Z,99.90
2018-05-09T05:05:02.937Z,99.90
2018-05-09T05:07:30.551Z,99.90
2018-05-09T05:09:58.186Z,99.90
2018-05-09T05:12:25.823Z,99.90
2018-05-09T05:14:53.439Z,99.90
2018-05-09T05:17:21.059Z,99.90
2018-05-09T05:19:48.675Z,99.90
2018-05-09T05:22:16.296Z,99.90
2018-05-09T05:24:43.924Z,99.90
2018-05-09T05:27:11.553Z,99.90
2018-05-09T05:29:39.155Z,99.90
2018-05-09T05:32:06.767Z,99.90
2018-05-09T05:34:34.387Z,99.90
2018-05-09T05:37:02.016Z,99.90
2018-05-09T05:39:29.652Z,99.90
2018-05-09T05:41:57.267Z,99.90
2018-05-09T05:44:24.883Z,99.90
2018-05-09T05:46:53.265Z,99.90
2018-05-09T05:49:20.883Z,99.90
2018-05-09T05:51:48.502Z,99.90
2018-05-09T05:54:16.127Z,99.90
2018-05-09T05:56:43.743Z,99.90
2018-05-09T05:59:11.359Z,99.90
2018-05-09T06:01:38.974Z,99.90
2018-05-09T06:04:06.606Z,99.90
2018-05-09T06:06:34.223Z,99.90
2018-05-09T06:09:01.839Z,99.90
2018-05-09T06:11:29.465Z,99.90
2018-05-09T06:13:57.080Z,99.90
2018-05-09T06:16:24.706Z,99.90
2018-05-09T06:18:52.323Z,99.90
2018-05-09T06:21:19.952Z,99.90
2018-05-09T06:23:47.581Z,99.90
2018-05-09T06:26:15.183Z,99.90
2018-05-09T06:28:42.811Z,99.90
2018-05-09T06:31:10.435Z,99.90
2018-05-09T06:33:38.047Z,99.90
2018-05-09T06:36:05.658Z,99.90
2018-05-09T06:38:33.274Z,99.90
2018-05-09T06:41:00.887Z,99.90
2018-05-09T06:43:28.515Z,99.90
2018-05-09T06:45:56.131Z,99.90
2018-05-09T06:48:23.764Z,99.90
2018-05-09T06:50:51.379Z,99.90
2018-05-09T06:53:19.003Z,99.90
2018-05-09T06:55:46.628Z,99.90
2018-05-09T06:58:14.239Z,99.90
2018-05-09T07:00:41.862Z,99.90
2018-05-09T07:03:09.475Z,99.80
2018-05-09T07:05:37.086Z,99.90
2018-05-09T07:08:04.710Z,98.70
2018-05-09T07:10:33.099Z,99.40
2018-05-09T07:13:00.720Z,99.40
2018-05-09T07:15:28.336Z,97.40
2018-05-09T07:17:55.963Z,99.90
2018-05-09T07:20:23.580Z,99.50
2018-05-09T07:22:51.966Z,98.60
2018-05-09T07:25:19.585Z,98.60
2018-05-09T07:27:47.205Z,98.20
2018-05-09T07:30:14.832Z,95.10
2018-05-09T07:32:42.442Z,94.00
2018-05-09T07:35:10.051Z,94.50
2018-05-09T07:37:37.672Z,97.70
2018-05-09T07:40:05.290Z,91.30
2018-05-09T07:42:33.678Z,94.30
2018-05-09T07:45:01.292Z,94.40
2018-05-09T07:47:28.921Z,91.20
2018-05-09T07:49:56.530Z,91.10
2018-05-09T07:52:24.146Z,90.90
2018-05-09T07:54:51.758Z,85.90
2018-05-09T07:57:19.379Z,82.40
2018-05-09T07:59:46.994Z,81.60
2018-05-09T08:02:14.619Z,90.20
2018-05-09T08:04:42.234Z,86.70
2018-05-09T08:07:10.631Z,83.00
2018-05-09T08:09:38.251Z,82.90
2018-05-09T08:12:05.872Z,88.00
2018-05-09T08:14:33.492Z,89.40
2018-05-09T08:17:01.116Z,85.10
2018-05-09T08:19:28.740Z,90.20
2018-05-09T08:21:56.363Z,89.00
2018-05-09T08:24:23.984Z,87.50
2018-05-09T08:26:51.603Z,83.00
2018-05-09T08:29:19.230Z,82.00
2018-05-09T08:31:46.843Z,81.40
2018-05-09T08:34:14.467Z,76.90
2018-05-09T08:36:42.115Z,85.40
2018-05-09T08:39:10.859Z,80.90
2018-05-09T08:41:38.474Z,80.90
2018-05-09T08:44:06.106Z,82.30
2018-05-09T08:46:33.731Z,75.10
2018-05-09T08:49:01.342Z,77.80
2018-05-09T08:51:28.959Z,80.60
2018-05-09T08:53:56.579Z,72.90
2018-05-09T08:56:24.207Z,79.00
2018-05-09T08:58:52.586Z,69.40
2018-05-09T09:01:20.220Z,69.20
2018-05-09T09:03:47.844Z,68.40
2018-05-09T09:06:15.463Z,63.40
2018-05-09T09:08:43.081Z,61.60
2018-05-09T09:11:10.707Z,60.60
2018-05-09T09:13:38.318Z,56.20
2018-05-09T09:16:05.940Z,58.00
2018-05-09T09:18:33.557Z,61.60
2018-05-09T09:21:01.167Z,56.70
2018-05-09T09:23:28.783Z,57.40
2018-05-09T09:25:56.407Z,52.50
2018-05-09T09:28:24.018Z,53.00
2018-05-09T09:30:51.642Z,52.30
2018-05-09T09:33:19.254Z,52.20
2018-05-09T09:35:46.876Z,49.40
2018-05-09T09:38:14.507Z,50.10
2018-05-09T09:40:42.122Z,47.70
2018-05-09T09:43:09.748Z,46.10
2018-05-09T09:45:37.474Z,49.20
2018-05-09T09:48:05.087Z,47.20
2018-05-09T09:50:32.771Z,47.90
2018-05-09T09:53:00.323Z,45.60
2018-05-09T09:55:27.939Z,44.90
2018-05-09T09:57:55.567Z,41.20
2018-05-09T10:00:23.212Z,41.80
2018-05-09T10:02:51.590Z,41.60
2018-05-09T10:05:19.212Z,41.70
2018-05-09T10:07:46.838Z,42.60
2018-05-09T10:10:14.467Z,39.10
2018-05-09T10:12:42.088Z,38.50
2018-05-09T10:15:10.479Z,36.10
2018-05-09T10:17:38.098Z,36.00
2018-05-09T10:20:05.719Z,38.10
2018-05-09T10:22:33.339Z,37.50
2018-05-09T10:25:00.958Z,39.50
2018-05-09T10:27:28.587Z,38.60
2018-05-09T10:29:56.199Z,38.30
2018-05-09T10:32:23.815Z,38.10
2018-05-09T10:34:51.471Z,34.10
2018-05-09T10:37:19.126Z,35.50
2018-05-09T10:39:46.783Z,33.40
2018-05-09T10:42:14.366Z,35.00
2018-05-09T10:44:42.029Z,33.10
2018-05-09T10:47:09.621Z,33.40
2018-05-09T10:49:37.478Z,32.60
2018-05-09T10:52:05.143Z,32.30
2018-05-09T10:54:32.758Z,33.70
2018-05-09T10:57:00.374Z,32.50
2018-05-09T10:59:27.995Z,31.90
2018-05-09T11:01:55.616Z,31.90
2018-05-09T11:04:23.248Z,33.20
2018-05-09T11:06:50.868Z,30.90
2018-05-09T11:09:18.482Z,31.60
2018-05-09T11:11:46.277Z,32.30
2018-05-09T11:14:13.886Z,30.50
2018-05-09T11:16:41.517Z,32.40
2018-05-09T11:19:09.899Z,32.50
2018-05-09T11:21:38.292Z,32.40
2018-05-09T11:24:05.890Z,32.20
2018-05-09T11:26:33.516Z,31.70
2018-05-09T11:29:01.475Z,31.20
2018-05-09T11:31:29.091Z,31.90
2018-05-09T11:33:56.710Z,31.80
2018-05-09T11:36:24.331Z,32.30
2018-05-09T11:38:51.958Z,31.60
2018-05-09T11:41:19.575Z,33.80
2018-05-09T11:43:47.190Z,34.90
2018-05-09T11:46:14.807Z,37.30
2018-05-09T11:48:42.429Z,35.30
2018-05-09T11:51:10.043Z,33.20
2018-05-09T11:53:37.662Z,33.30
2018-05-09T11:56:05.291Z,33.20
2018-05-09T11:58:32.911Z,33.00
2018-05-09T12:01:00.522Z,33.20
2018-05-09T12:03:28.182Z,32.60
2018-05-09T12:05:55.798Z,32.80
2018-05-09T12:08:23.415Z,31.80
2018-05-09T12:10:51.176Z,31.20
2018-05-09T12:13:18.654Z,30.60
2018-05-09T12:15:46.431Z,29.30
2018-05-09T12:18:14.051Z,28.50
2018-05-09T12:20:41.670Z,28.90
2018-05-09T12:23:09.299Z,28.90
2018-05-09T12:25:38.094Z,29.30
2018-05-09T12:28:05.722Z,28.90
2018-05-09T12:30:33.351Z,28.20
2018-05-09T12:33:00.971Z,28.10
2018-05-09T12:35:28.591Z,28.10
2018-05-09T12:37:56.615Z,28.40
2018-05-09T12:40:24.323Z,29.60
2018-05-09T12:42:52.704Z,28.40
2018-05-09T12:45:20.329Z,28.40
2018-05-09T12:47:47.946Z,29.30
2018-05-09T12:50:15.563Z,27.60
2018-05-09T12:52:43.187Z,27.50
2018-05-09T12:55:11.576Z,28.00
2018-05-09T12:57:39.194Z,28.10
2018-05-09T13:00:06.818Z,28.30
2018-05-09T13:02:34.439Z,28.40
2018-05-09T13:05:05.892Z,27.50
2018-05-09T13:07:33.511Z,27.20
2018-05-09T13:10:01.139Z,28.10
2018-05-09T13:12:28.768Z,27.90
2018-05-09T13:14:56.387Z,27.90
2018-05-09T13:17:24.011Z,28.80
2018-05-09T13:19:51.740Z,29.90
2018-05-09T13:22:19.242Z,31.50
2018-05-09T13:24:47.626Z,34.20
2018-05-09T13:27:15.241Z,34.10
2018-05-09T13:29:42.860Z,34.60
2018-05-09T13:32:11.248Z,32.70
2018-05-09T13:34:38.866Z,32.70
2018-05-09T13:37:06.488Z,31.10
2018-05-09T13:39:34.867Z,32.00
2018-05-09T13:42:02.498Z,32.00
2018-05-09T13:44:30.411Z,32.70
2018-05-09T13:46:58.795Z,30.00
2018-05-09T13:49:27.183Z,30.00
2018-05-09T13:51:54.815Z,30.10
2018-05-09T13:54:22.426Z,30.70
2018-05-09T13:56:50.048Z,31.10
2018-05-09T13:59:17.667Z,32.00
2018-05-09T14:01:45.283Z,33.30
2018-05-09T14:04:12.907Z,33.60
2018-05-09T14:06:40.519Z,34.80
2018-05-09T14:09:08.148Z,35.20
2018-05-09T14:11:35.763Z,37.00
2018-05-09T14:14:03.391Z,36.90
2018-05-09T14:16:31.259Z,37.40
2018-05-09T14:18:58.879Z,37.40
2018-05-09T14:21:26.498Z,38.50
2018-05-09T14:23:54.111Z,38.60
2018-05-09T14:26:22.497Z,37.60
2018-05-09T14:28:50.110Z,37.60
2018-05-09T14:31:20.957Z,36.70
2018-05-09T14:33:49.034Z,37.20
2018-05-09T14:36:19.492Z,37.90
2018-05-09T14:38:48.433Z,36.60
2018-05-09T14:41:18.500Z,38.00
2018-05-09T14:43:46.885Z,40.50
2018-05-09T14:46:14.495Z,40.40
2018-05-09T14:48:42.120Z,39.50
2018-05-09T14:51:09.735Z,40.90
2018-05-09T14:53:37.399Z,40.40
2018-05-09T14:56:05.024Z,40.50
2018-05-09T14:58:38.299Z,40.70
2018-05-09T15:01:05.919Z,40.80
2018-05-09T15:03:33.540Z,40.50
2018-05-09T15:06:01.160Z,41.00
2018-05-09T15:08:28.811Z,41.50
2018-05-09T15:10:56.399Z,40.20
2018-05-09T15:13:24.019Z,41.50
2018-05-09T15:15:51.655Z,40.40
2018-05-09T15:18:19.739Z,41.10
2018-05-09T15:20:52.964Z,42.00
2018-05-09T15:23:20.566Z,41.00
2018-05-09T15:25:48.185Z,41.70
2018-05-09T15:28:15.811Z,41.40
2018-05-09T15:30:43.432Z,41.50
2018-05-09T15:33:11.055Z,41.20
2018-05-09T15:35:38.683Z,42.50
2018-05-09T15:38:06.313Z,42.60
2018-05-09T15:40:34.195Z,42.60
2018-05-09T15:43:01.815Z,44.20
2018-05-09T15:45:32.871Z,43.60
2018-05-09T15:48:00.487Z,44.10
2018-05-09T15:50:28.100Z,43.80
2018-05-09T15:52:55.718Z,43.80
2018-05-09T15:55:23.335Z,45.30
2018-05-09T15:57:50.955Z,46.40
2018-05-09T16:00:19.061Z,44.30
2018-05-09T16:02:46.690Z,44.90
2018-05-09T16:05:14.319Z,46.80
2018-05-09T16:07:41.939Z,45.50
2018-05-09T16:10:09.568Z,45.10
2018-05-09T16:12:37.575Z,45.50
2018-05-09T16:15:05.164Z,46.30
2018-05-09T16:17:32.805Z,61.10
2018-05-09T16:20:00.424Z,47.70
2018-05-09T16:22:28.136Z,54.50
2018-05-09T16:24:55.676Z,49.90
2018-05-09T16:27:23.295Z,47.20
2018-05-09T16:29:50.906Z,48.00
2018-05-09T16:32:18.528Z,46.80
2018-05-09T16:34:46.175Z,46.60
2018-05-09T16:37:13.804Z,47.80
2018-05-09T16:39:42.275Z,47.30
2018-05-09T16:42:09.807Z,47.30
2018-05-09T16:44:37.425Z,47.70
2018-05-09T16:47:05.043Z,48.00
2018-05-09T16:49:32.663Z,51.90
2018-05-09T16:52:00.280Z,54.60
2018-05-09T16:54:27.907Z,49.50
2018-05-09T16:56:55.527Z,48.40
2018-05-09T16:59:23.155Z,55.40
2018-05-09T17:01:50.762Z,56.40
2018-05-09T17:04:19.151Z,57.10
2018-05-09T17:06:46.779Z,56.90
2018-05-09T17:09:14.395Z,56.90
2018-05-09T17:11:42.022Z,53.10
2018-05-09T17:14:09.638Z,53.50
2018-05-09T17:16:37.255Z,53.30
2018-05-09T17:19:04.890Z,61.90
2018-05-09T17:21:44.337Z,64.80
2018-05-09T17:24:11.964Z,52.70
2018-05-09T17:26:39.587Z,59.50
2018-05-09T17:29:07.202Z,57.50
2018-05-09T17:31:34.830Z,59.10
2018-05-09T17:34:02.450Z,58.90
2018-05-09T17:36:30.063Z,66.70
2018-05-09T17:38:57.697Z,62.10
2018-05-09T17:41:25.323Z,54.80
2018-05-09T17:43:52.951Z,60.00
2018-05-09T17:46:20.576Z,61.50
2018-05-09T17:48:48.195Z,64.40
2018-05-09T17:51:15.815Z,68.60
2018-05-09T17:53:43.443Z,69.50
2018-05-09T17:56:11.370Z,69.20
2018-05-09T17:58:38.982Z,62.20
2018-05-09T18:01:06.623Z,65.40
2018-05-09T18:03:36.387Z,67.50
2018-05-09T18:06:04.006Z,68.90
2018-05-09T18:08:31.636Z,74.60
2018-05-09T18:10:59.279Z,73.50
2018-05-09T18:13:26.925Z,78.40
2018-05-09T18:15:55.315Z,78.80
2018-05-09T18:18:22.943Z,78.80
2018-05-09T18:20:57.037Z,78.40
2018-05-09T18:23:24.731Z,76.90
2018-05-09T18:25:52.384Z,82.60
2018-05-09T18:28:20.066Z,82.70
2018-05-09T18:30:47.882Z,81.00
2018-05-09T18:33:15.591Z,83.60
2018-05-09T18:35:43.233Z,81.40
2018-05-09T18:38:10.949Z,84.60
2018-05-09T18:40:38.637Z,85.30
2018-05-09T18:43:07.080Z,89.40
2018-05-09T18:45:34.753Z,89.20
2018-05-09T18:48:02.445Z,90.30
2018-05-09T18:50:30.247Z,85.00
2018-05-09T18:52:58.646Z,83.70
2018-05-09T18:55:26.386Z,84.80
2018-05-09T18:57:54.199Z,90.60
2018-05-09T19:00:21.906Z,91.80
2018-05-09T19:02:50.322Z,91.80
2018-05-09T19:05:17.986Z,92.10
2018-05-09T19:07:45.657Z,90.50
2018-05-09T19:10:13.492Z,90.50
2018-05-09T19:12:41.154Z,89.40
2018-05-09T19:15:08.838Z,93.30
2018-05-09T19:17:36.543Z,92.20
2018-05-09T19:20:04.243Z,92.30
2018-05-09T19:22:31.922Z,91.70
2018-05-09T19:24:59.609Z,91.60
2018-05-09T19:27:27.272Z,93.10
2018-05-09T19:29:56.113Z,94.30
2018-05-09T19:32:23.763Z,95.70
2018-05-09T19:34:51.438Z,95.10
2018-05-09T19:37:19.102Z,93.60
2018-05-09T19:39:46.813Z,95.90
2018-05-09T19:42:14.503Z,95.00
2018-05-09T19:44:42.152Z,95.30
2018-05-09T19:47:09.979Z,95.00
2018-05-09T19:49:37.619Z,96.50
2018-05-09T19:52:05.283Z,93.20
2018-05-09T19:54:32.942Z,95.60
2018-05-09T19:57:00.609Z,93.20
2018-05-09T19:59:29.035Z,94.90
2018-05-09T20:01:56.709Z,95.00
2018-05-09T20:04:24.425Z,94.50
2018-05-09T20:06:52.146Z,93.80
2018-05-09T20:09:19.778Z,94.80
2018-05-09T20:11:47.456Z,94.10
2018-05-09T20:14:15.103Z,94.70
2018-05-09T20:16:42.789Z,96.40
2018-05-09T20:19:10.461Z,93.80
2018-05-09T20:21:38.104Z,96.40
2018-05-09T20:24:05.796Z,97.10
2018-05-09T20:26:33.491Z,97.10
2018-05-09T20:29:01.157Z,97.80
2018-05-09T20:31:40.550Z,95.80
2018-05-09T20:34:08.203Z,97.00
2018-05-09T20:36:35.860Z,97.20
2018-05-09T20:39:03.552Z,98.50
2018-05-09T20:41:31.213Z,96.50
2018-05-09T20:43:58.894Z,99.40
2018-05-09T20:46:26.544Z,97.90
2018-05-09T20:48:54.361Z,98.50
2018-05-09T20:51:33.747Z,96.50
2018-05-09T20:54:01.355Z,97.70
2018-05-09T20:56:28.971Z,99.40
2018-05-09T20:58:56.678Z,99.90
2018-05-09T21:01:37.180Z,99.10
2018-05-09T21:04:05.568Z,99.90
2018-05-09T21:06:33.192Z,99.90
2018-05-09T21:09:00.808Z,99.90
2018-05-09T21:11:28.428Z,99.90
2018-05-09T21:13:56.063Z,99.90
2018-05-09T21:16:23.695Z,99.90
2018-05-09T21:18:51.349Z,98.70
2018-05-09T21:21:18.977Z,99.90
2018-05-09T21:23:46.604Z,99.90
2018-05-09T21:26:14.232Z,99.80
2018-05-09T21:28:42.623Z,99.90
2018-05-09T21:31:10.250Z,99.90
2018-05-09T21:33:37.880Z,99.90
2018-05-09T21:36:05.503Z,99.90
2018-05-09T21:38:33.122Z,99.90
2018-05-09T21:41:00.744Z,99.90
2018-05-09T21:43:28.383Z,99.90
2018-05-09T21:45:56.002Z,99.90
2018-05-09T21:48:23.623Z,99.90
2018-05-09T21:50:51.260Z,99.90
2018-05-09T21:53:18.879Z,99.90
2018-05-09T21:55:46.495Z,99.90
2018-05-09T21:58:14.122Z,99.90
2018-05-09T22:00:44.280Z,99.90
2018-05-09T22:03:11.895Z,99.90
2018-05-09T22:05:39.511Z,99.90
2018-05-09T22:08:07.136Z,99.90
2018-05-09T22:10:34.755Z,99.90
2018-05-09T22:13:02.386Z,99.90
2018-05-09T22:15:30.020Z,99.90
2018-05-09T22:17:57.638Z,99.90
2018-05-09T22:20:25.259Z,99.90
2018-05-09T22:22:53.650Z,99.90
2018-05-09T22:25:21.286Z,99.90
2018-05-09T22:27:48.915Z,99.90
2018-05-09T22:30:16.540Z,99.90
2018-05-09T22:32:44.159Z,99.90
2018-05-09T22:35:11.784Z,99.90
2018-05-09T22:37:39.407Z,99.90
2018-05-09T22:40:07.027Z,99.90
2018-05-09T22:42:34.646Z,99.90
2018-05-09T22:45:02.263Z,99.90
2018-05-09T22:47:29.891Z,99.90
2018-05-09T22:49:57.506Z,99.90
2018-05-09T22:52:25.131Z,99.90
2018-05-09T22:54:52.780Z,99.90
2018-05-09T22:57:20.371Z,99.90
2018-05-09T22:59:53.811Z,95.50
2018-05-09T23:02:21.431Z,98.30
2018-05-09T23:04:49.819Z,97.80
2018-05-09T23:07:17.445Z,97.70
2018-05-09T23:09:45.063Z,99.10
2018-05-09T23:12:12.687Z,97.40
2018-05-09T23:14:40.315Z,98.80
2018-05-09T23:17:08.045Z,97.70
2018-05-09T23:19:35.571Z,98.50
2018-05-09T23:22:03.198Z,96.70
2018-05-09T23:24:30.815Z,97.60
2018-05-09T23:26:58.446Z,94.70
2018-05-09T23:29:26.064Z,95.30
2018-05-09T23:31:53.684Z,94.00
2018-05-09T23:34:21.300Z,93.90
2018-05-09T23:36:48.915Z,94.70
2018-05-09T23:39:16.535Z,93.50
2018-05-09T23:41:44.171Z,93.50
2018-05-09T23:44:11.787Z,92.90
2018-05-09T23:46:39.403Z,92.80
2018-05-09T23:49:07.019Z,94.60
2018-05-09T23:51:34.649Z,93.60
2018-05-09T23:54:02.279Z,96.20
2018-05-09T23:56:29.912Z,96.40
2018-05-09T23:58:57.534Z,96.40
